sensor_id;sensor_type;location;lat;lon;timestamp;P1;durP1;ratioP1;P2;durP2;ratioP2
15425;SDS011;7812;50.072;7.036;2023-11-21T00:02:21;1.60;;;1.20;;
15425;SDS011;7812;50.072;7.036;2023-11-21T00:04:49;2.50;;;1.63;;
15425;SDS011;7812;50.072;7.036;2023-11-21T00:07:15;1.50;;;1.27;;
15425;SDS011;7812;50.072;7.036;2023-11-21T00:09:42;3.30;;;1.37;;
15425;SDS011;7812;50.072;7.036;2023-11-21T00:12:08;1.13;;;1.03;;
15425;SDS011;7812;50.072;7.036;2023-11-21T00:14:37;2.60;;;1.23;;
15425;SDS011;7812;50.072;7.036;2023-11-21T00:17:03;2.37;;;1.20;;
15425;SDS011;7812;50.072;7.036;2023-11-21T00:19:30;2.60;;;1.93;;
15425;SDS011;7812;50.072;7.036;2023-11-21T00:21:57;4.23;;;1.80;;
15425;SDS011;7812;50.072;7.036;2023-11-21T00:24:23;3.57;;;2.07;;
15425;SDS011;7812;50.072;7.036;2023-11-21T00:26:50;2.83;;;1.87;;
15425;SDS011;7812;50.072;7.036;2023-11-21T00:29:18;4.57;;;1.53;;
15425;SDS011;7812;50.072;7.036;2023-11-21T00:31:44;4.37;;;1.67;;
15425;SDS011;7812;50.072;7.036;2023-11-21T00:34:13;3.17;;;1.73;;
15425;SDS011;7812;50.072;7.036;2023-11-21T00:36:39;2.57;;;1.37;;
15425;SDS011;7812;50.072;7.036;2023-11-21T00:39:05;3.73;;;1.40;;
15425;SDS011;7812;50.072;7.036;2023-11-21T00:41:32;3.23;;;1.37;;
15425;SDS011;7812;50.072;7.036;2023-11-21T00:43:57;2.20;;;1.10;;
15425;SDS011;7812;50.072;7.036;2023-11-21T00:46:24;3.70;;;1.33;;
15425;SDS011;7812;50.072;7.036;2023-11-21T00:48:52;2.27;;;1.40;;
15425;SDS011;7812;50.072;7.036;2023-11-21T00:51:19;2.80;;;1.20;;
15425;SDS011;7812;50.072;7.036;2023-11-21T00:53:45;1.47;;;1.00;;
15425;SDS011;7812;50.072;7.036;2023-11-21T00:56:11;2.70;;;1.27;;
15425;SDS011;7812;50.072;7.036;2023-11-21T00:58:38;4.43;;;1.53;;
15425;SDS011;7812;50.072;7.036;2023-11-21T01:01:08;4.37;;;1.40;;
15425;SDS011;7812;50.072;7.036;2023-11-21T01:03:34;2.60;;;1.50;;
15425;SDS011;7812;50.072;7.036;2023-11-21T01:06:00;3.90;;;1.63;;
15425;SDS011;7812;50.072;7.036;2023-11-21T01:08:26;3.50;;;1.83;;
15425;SDS011;7812;50.072;7.036;2023-11-21T01:10:52;2.80;;;1.10;;
15425;SDS011;7812;50.072;7.036;2023-11-21T01:13:19;4.67;;;1.00;;
15425;SDS011;7812;50.072;7.036;2023-11-21T01:15:45;4.17;;;1.27;;
15425;SDS011;7812;50.072;7.036;2023-11-21T01:18:11;5.47;;;1.27;;
15425;SDS011;7812;50.072;7.036;2023-11-21T01:20:37;2.00;;;1.30;;
15425;SDS011;7812;50.072;7.036;2023-11-21T01:23:02;4.10;;;1.13;;
15425;SDS011;7812;50.072;7.036;2023-11-21T01:25:28;3.73;;;1.50;;
15425;SDS011;7812;50.072;7.036;2023-11-21T01:27:54;3.80;;;1.73;;
15425;SDS011;7812;50.072;7.036;2023-11-21T01:30:21;4.27;;;1.53;;
15425;SDS011;7812;50.072;7.036;2023-11-21T01:32:47;3.17;;;1.43;;
15425;SDS011;7812;50.072;7.036;2023-11-21T01:35:13;2.70;;;1.23;;
15425;SDS011;7812;50.072;7.036;2023-11-21T01:37:39;2.60;;;1.30;;
15425;SDS011;7812;50.072;7.036;2023-11-21T01:40:05;2.40;;;1.10;;
15425;SDS011;7812;50.072;7.036;2023-11-21T01:42:35;3.73;;;0.80;;
15425;SDS011;7812;50.072;7.036;2023-11-21T01:45:01;4.07;;;0.80;;
15425;SDS011;7812;50.072;7.036;2023-11-21T01:47:30;4.10;;;0.70;;
15425;SDS011;7812;50.072;7.036;2023-11-21T01:49:57;2.17;;;1.27;;
15425;SDS011;7812;50.072;7.036;2023-11-21T01:52:24;3.57;;;1.10;;
15425;SDS011;7812;50.072;7.036;2023-11-21T01:54:50;5.43;;;1.03;;
15425;SDS011;7812;50.072;7.036;2023-11-21T01:57:17;1.97;;;0.90;;
15425;SDS011;7812;50.072;7.036;2023-11-21T01:59:45;2.87;;;0.93;;
15425;SDS011;7812;50.072;7.036;2023-11-21T02:02:14;6.03;;;1.00;;
15425;SDS011;7812;50.072;7.036;2023-11-21T02:04:40;2.60;;;0.70;;
15425;SDS011;7812;50.072;7.036;2023-11-21T02:07:06;5.07;;;0.83;;
15425;SDS011;7812;50.072;7.036;2023-11-21T02:09:33;1.47;;;0.70;;
15425;SDS011;7812;50.072;7.036;2023-11-21T02:11:59;4.07;;;1.00;;
15425;SDS011;7812;50.072;7.036;2023-11-21T02:14:26;5.13;;;0.80;;
15425;SDS011;7812;50.072;7.036;2023-11-21T02:16:53;2.03;;;1.03;;
15425;SDS011;7812;50.072;7.036;2023-11-21T02:19:20;2.57;;;0.90;;
15425;SDS011;7812;50.072;7.036;2023-11-21T02:21:54;1.73;;;0.70;;
15425;SDS011;7812;50.072;7.036;2023-11-21T02:24:31;2.60;;;0.70;;
15425;SDS011;7812;50.072;7.036;2023-11-21T02:26:58;1.37;;;0.63;;
15425;SDS011;7812;50.072;7.036;2023-11-21T02:29:24;5.37;;;1.10;;
15425;SDS011;7812;50.072;7.036;2023-11-21T02:31:55;2.20;;;0.90;;
15425;SDS011;7812;50.072;7.036;2023-11-21T02:34:21;3.30;;;0.90;;
15425;SDS011;7812;50.072;7.036;2023-11-21T02:36:48;1.63;;;0.70;;
15425;SDS011;7812;50.072;7.036;2023-11-21T02:39:17;3.47;;;0.87;;
15425;SDS011;7812;50.072;7.036;2023-11-21T02:41:47;1.20;;;0.80;;
15425;SDS011;7812;50.072;7.036;2023-11-21T02:44:12;1.13;;;0.60;;
15425;SDS011;7812;50.072;7.036;2023-11-21T02:46:38;2.40;;;0.70;;
15425;SDS011;7812;50.072;7.036;2023-11-21T02:49:05;2.83;;;0.70;;
15425;SDS011;7812;50.072;7.036;2023-11-21T02:51:32;3.07;;;0.80;;
15425;SDS011;7812;50.072;7.036;2023-11-21T02:53:58;2.57;;;0.90;;
15425;SDS011;7812;50.072;7.036;2023-11-21T02:56:27;3.23;;;0.60;;
15425;SDS011;7812;50.072;7.036;2023-11-21T02:58:56;2.47;;;0.77;;
15425;SDS011;7812;50.072;7.036;2023-11-21T03:01:23;1.73;;;0.90;;
15425;SDS011;7812;50.072;7.036;2023-11-21T03:03:49;4.60;;;0.80;;
15425;SDS011;7812;50.072;7.036;2023-11-21T03:06:16;1.30;;;0.67;;
15425;SDS011;7812;50.072;7.036;2023-11-21T03:08:43;4.27;;;0.77;;
15425;SDS011;7812;50.072;7.036;2023-11-21T03:11:09;2.83;;;0.70;;
15425;SDS011;7812;50.072;7.036;2023-11-21T03:13:35;1.27;;;0.60;;
15425;SDS011;7812;50.072;7.036;2023-11-21T03:16:01;2.77;;;0.83;;
15425;SDS011;7812;50.072;7.036;2023-11-21T03:18:27;2.23;;;0.90;;
15425;SDS011;7812;50.072;7.036;2023-11-21T03:20:54;5.40;;;1.23;;
15425;SDS011;7812;50.072;7.036;2023-11-21T03:23:20;7.07;;;0.90;;
15425;SDS011;7812;50.072;7.036;2023-11-21T03:25:45;2.23;;;1.00;;
15425;SDS011;7812;50.072;7.036;2023-11-21T03:28:11;1.97;;;1.10;;
15425;SDS011;7812;50.072;7.036;2023-11-21T03:30:38;2.37;;;0.93;;
15425;SDS011;7812;50.072;7.036;2023-11-21T03:33:04;3.40;;;0.90;;
15425;SDS011;7812;50.072;7.036;2023-11-21T03:35:30;2.17;;;1.03;;
15425;SDS011;7812;50.072;7.036;2023-11-21T03:37:55;1.77;;;0.93;;
15425;SDS011;7812;50.072;7.036;2023-11-21T03:40:21;2.83;;;1.00;;
15425;SDS011;7812;50.072;7.036;2023-11-21T03:42:47;2.87;;;1.30;;
15425;SDS011;7812;50.072;7.036;2023-11-21T03:45:13;1.97;;;1.00;;
15425;SDS011;7812;50.072;7.036;2023-11-21T03:47:40;2.20;;;1.00;;
15425;SDS011;7812;50.072;7.036;2023-11-21T03:50:07;1.67;;;1.20;;
15425;SDS011;7812;50.072;7.036;2023-11-21T03:52:36;1.93;;;0.90;;
15425;SDS011;7812;50.072;7.036;2023-11-21T03:55:02;1.03;;;0.90;;
15425;SDS011;7812;50.072;7.036;2023-11-21T03:57:29;1.43;;;0.70;;
15425;SDS011;7812;50.072;7.036;2023-11-21T03:59:55;1.73;;;0.73;;
15425;SDS011;7812;50.072;7.036;2023-11-21T04:02:20;1.93;;;0.93;;
15425;SDS011;7812;50.072;7.036;2023-11-21T04:04:46;3.43;;;0.90;;
15425;SDS011;7812;50.072;7.036;2023-11-21T04:07:12;2.57;;;1.07;;
15425;SDS011;7812;50.072;7.036;2023-11-21T04:09:39;1.50;;;1.00;;
15425;SDS011;7812;50.072;7.036;2023-11-21T04:12:06;3.23;;;1.10;;
15425;SDS011;7812;50.072;7.036;2023-11-21T04:14:34;6.80;;;1.40;;
15425;SDS011;7812;50.072;7.036;2023-11-21T04:17:00;3.43;;;1.40;;
15425;SDS011;7812;50.072;7.036;2023-11-21T04:19:26;1.73;;;0.97;;
15425;SDS011;7812;50.072;7.036;2023-11-21T04:21:52;2.63;;;1.10;;
15425;SDS011;7812;50.072;7.036;2023-11-21T04:24:18;3.07;;;1.30;;
15425;SDS011;7812;50.072;7.036;2023-11-21T04:26:44;5.23;;;1.50;;
15425;SDS011;7812;50.072;7.036;2023-11-21T04:29:10;3.17;;;1.30;;
15425;SDS011;7812;50.072;7.036;2023-11-21T04:31:36;2.83;;;1.57;;
15425;SDS011;7812;50.072;7.036;2023-11-21T04:34:02;2.40;;;1.20;;
15425;SDS011;7812;50.072;7.036;2023-11-21T04:36:29;1.90;;;0.97;;
15425;SDS011;7812;50.072;7.036;2023-11-21T04:38:58;1.87;;;1.23;;
15425;SDS011;7812;50.072;7.036;2023-11-21T04:41:24;5.10;;;3.30;;
15425;SDS011;7812;50.072;7.036;2023-11-21T04:43:49;24.20;;;19.27;;
15425;SDS011;7812;50.072;7.036;2023-11-21T04:46:15;11.20;;;7.17;;
15425;SDS011;7812;50.072;7.036;2023-11-21T04:48:41;2.97;;;2.20;;
15425;SDS011;7812;50.072;7.036;2023-11-21T04:51:07;4.20;;;1.70;;
15425;SDS011;7812;50.072;7.036;2023-11-21T04:53:33;3.23;;;1.33;;
15425;SDS011;7812;50.072;7.036;2023-11-21T04:56:00;5.57;;;1.63;;
15425;SDS011;7812;50.072;7.036;2023-11-21T04:58:25;4.13;;;1.40;;
15425;SDS011;7812;50.072;7.036;2023-11-21T05:00:51;4.37;;;1.40;;
15425;SDS011;7812;50.072;7.036;2023-11-21T05:03:17;5.03;;;1.77;;
15425;SDS011;7812;50.072;7.036;2023-11-21T05:05:43;2.83;;;1.50;;
15425;SDS011;7812;50.072;7.036;2023-11-21T05:08:09;6.83;;;5.70;;
15425;SDS011;7812;50.072;7.036;2023-11-21T05:10:35;3.70;;;2.43;;
15425;SDS011;7812;50.072;7.036;2023-11-21T05:13:03;2.57;;;1.17;;
15425;SDS011;7812;50.072;7.036;2023-11-21T05:15:29;1.20;;;1.00;;
15425;SDS011;7812;50.072;7.036;2023-11-21T05:17:54;2.53;;;1.10;;
15425;SDS011;7812;50.072;7.036;2023-11-21T05:20:20;2.20;;;1.30;;
15425;SDS011;7812;50.072;7.036;2023-11-21T05:22:46;2.97;;;1.30;;
15425;SDS011;7812;50.072;7.036;2023-11-21T05:25:13;3.10;;;1.40;;
15425;SDS011;7812;50.072;7.036;2023-11-21T05:27:39;1.70;;;1.20;;
15425;SDS011;7812;50.072;7.036;2023-11-21T05:30:05;3.60;;;3.13;;
15425;SDS011;7812;50.072;7.036;2023-11-21T05:32:35;8.03;;;7.27;;
15425;SDS011;7812;50.072;7.036;2023-11-21T05:35:00;4.97;;;4.57;;
15425;SDS011;7812;50.072;7.036;2023-11-21T05:37:26;14.43;;;12.97;;
15425;SDS011;7812;50.072;7.036;2023-11-21T05:39:55;4.13;;;2.73;;
15425;SDS011;7812;50.072;7.036;2023-11-21T05:42:24;2.37;;;2.17;;
15425;SDS011;7812;50.072;7.036;2023-11-21T05:44:50;2.90;;;2.17;;
15425;SDS011;7812;50.072;7.036;2023-11-21T05:47:16;3.27;;;1.87;;
15425;SDS011;7812;50.072;7.036;2023-11-21T05:49:43;2.73;;;1.50;;
15425;SDS011;7812;50.072;7.036;2023-11-21T05:52:10;3.33;;;1.67;;
15425;SDS011;7812;50.072;7.036;2023-11-21T05:54:36;3.50;;;1.73;;
15425;SDS011;7812;50.072;7.036;2023-11-21T05:57:02;1.73;;;1.40;;
15425;SDS011;7812;50.072;7.036;2023-11-21T05:59:29;3.17;;;1.40;;
15425;SDS011;7812;50.072;7.036;2023-11-21T06:01:55;2.30;;;1.50;;
15425;SDS011;7812;50.072;7.036;2023-11-21T06:04:20;2.70;;;1.50;;
15425;SDS011;7812;50.072;7.036;2023-11-21T06:06:49;2.77;;;1.10;;
15425;SDS011;7812;50.072;7.036;2023-11-21T06:09:16;3.63;;;1.63;;
15425;SDS011;7812;50.072;7.036;2023-11-21T06:11:41;3.90;;;1.40;;
15425;SDS011;7812;50.072;7.036;2023-11-21T06:14:07;4.13;;;1.17;;
15425;SDS011;7812;50.072;7.036;2023-11-21T06:16:34;1.70;;;1.20;;
15425;SDS011;7812;50.072;7.036;2023-11-21T06:19:00;1.20;;;1.10;;
15425;SDS011;7812;50.072;7.036;2023-11-21T06:21:26;4.13;;;1.57;;
15425;SDS011;7812;50.072;7.036;2023-11-21T06:23:52;1.43;;;1.17;;
15425;SDS011;7812;50.072;7.036;2023-11-21T06:26:18;4.37;;;1.27;;
15425;SDS011;7812;50.072;7.036;2023-11-21T06:28:45;11.10;;;6.00;;
15425;SDS011;7812;50.072;7.036;2023-11-21T06:31:11;2.60;;;1.90;;
15425;SDS011;7812;50.072;7.036;2023-11-21T06:33:37;2.40;;;1.80;;
15425;SDS011;7812;50.072;7.036;2023-11-21T06:36:03;2.47;;;1.70;;
15425;SDS011;7812;50.072;7.036;2023-11-21T06:38:29;1.90;;;1.40;;
15425;SDS011;7812;50.072;7.036;2023-11-21T06:40:55;1.90;;;1.70;;
15425;SDS011;7812;50.072;7.036;2023-11-21T06:43:23;7.70;;;5.37;;
15425;SDS011;7812;50.072;7.036;2023-11-21T06:45:49;6.20;;;3.53;;
15425;SDS011;7812;50.072;7.036;2023-11-21T06:48:15;5.03;;;4.07;;
15425;SDS011;7812;50.072;7.036;2023-11-21T06:50:41;6.50;;;5.37;;
15425;SDS011;7812;50.072;7.036;2023-11-21T06:53:07;6.70;;;6.00;;
15425;SDS011;7812;50.072;7.036;2023-11-21T06:55:33;4.40;;;3.60;;
15425;SDS011;7812;50.072;7.036;2023-11-21T06:58:00;4.47;;;2.20;;
15425;SDS011;7812;50.072;7.036;2023-11-21T07:00:26;3.60;;;2.20;;
15425;SDS011;7812;50.072;7.036;2023-11-21T07:02:54;3.53;;;1.93;;
15425;SDS011;7812;50.072;7.036;2023-11-21T07:05:21;6.30;;;3.47;;
15425;SDS011;7812;50.072;7.036;2023-11-21T07:07:47;2.73;;;2.23;;
15425;SDS011;7812;50.072;7.036;2023-11-21T07:10:14;4.17;;;2.20;;
15425;SDS011;7812;50.072;7.036;2023-11-21T07:12:40;2.10;;;1.90;;
15425;SDS011;7812;50.072;7.036;2023-11-21T07:15:06;2.20;;;1.80;;
15425;SDS011;7812;50.072;7.036;2023-11-21T07:17:34;24.47;;;18.20;;
15425;SDS011;7812;50.072;7.036;2023-11-21T07:20:03;3.57;;;2.63;;
15425;SDS011;7812;50.072;7.036;2023-11-21T07:22:31;4.00;;;3.13;;
15425;SDS011;7812;50.072;7.036;2023-11-21T07:24:57;2.93;;;2.63;;
15425;SDS011;7812;50.072;7.036;2023-11-21T07:27:23;5.30;;;2.73;;
15425;SDS011;7812;50.072;7.036;2023-11-21T07:29:49;2.97;;;2.23;;
15425;SDS011;7812;50.072;7.036;2023-11-21T07:32:14;5.40;;;3.03;;
15425;SDS011;7812;50.072;7.036;2023-11-21T07:34:41;7.73;;;6.33;;
15425;SDS011;7812;50.072;7.036;2023-11-21T07:37:07;3.50;;;2.97;;
15425;SDS011;7812;50.072;7.036;2023-11-21T07:39:34;13.53;;;9.90;;
15425;SDS011;7812;50.072;7.036;2023-11-21T07:42:01;5.60;;;3.00;;
15425;SDS011;7812;50.072;7.036;2023-11-21T07:44:27;5.80;;;2.87;;
15425;SDS011;7812;50.072;7.036;2023-11-21T07:46:53;5.43;;;2.97;;
15425;SDS011;7812;50.072;7.036;2023-11-21T07:49:22;3.30;;;2.80;;
15425;SDS011;7812;50.072;7.036;2023-11-21T07:51:49;7.87;;;3.27;;
15425;SDS011;7812;50.072;7.036;2023-11-21T07:54:15;5.53;;;3.40;;
15425;SDS011;7812;50.072;7.036;2023-11-21T07:56:41;5.57;;;3.10;;
15425;SDS011;7812;50.072;7.036;2023-11-21T07:59:07;4.27;;;2.80;;
15425;SDS011;7812;50.072;7.036;2023-11-21T08:01:33;4.40;;;3.00;;
15425;SDS011;7812;50.072;7.036;2023-11-21T08:03:59;4.50;;;3.10;;
15425;SDS011;7812;50.072;7.036;2023-11-21T08:06:28;3.47;;;2.97;;
15425;SDS011;7812;50.072;7.036;2023-11-21T08:08:58;3.23;;;2.60;;
15425;SDS011;7812;50.072;7.036;2023-11-21T08:11:24;4.43;;;3.00;;
15425;SDS011;7812;50.072;7.036;2023-11-21T08:13:51;3.43;;;2.20;;
15425;SDS011;7812;50.072;7.036;2023-11-21T08:16:18;5.93;;;3.23;;
15425;SDS011;7812;50.072;7.036;2023-11-21T08:18:44;3.10;;;2.50;;
15425;SDS011;7812;50.072;7.036;2023-11-21T08:21:12;3.27;;;2.70;;
15425;SDS011;7812;50.072;7.036;2023-11-21T08:23:38;2.37;;;2.00;;
15425;SDS011;7812;50.072;7.036;2023-11-21T08:26:04;2.50;;;2.27;;
15425;SDS011;7812;50.072;7.036;2023-11-21T08:28:30;4.63;;;2.50;;
15425;SDS011;7812;50.072;7.036;2023-11-21T08:30:56;3.77;;;2.87;;
15425;SDS011;7812;50.072;7.036;2023-11-21T08:33:22;6.77;;;3.10;;
15425;SDS011;7812;50.072;7.036;2023-11-21T08:35:48;5.20;;;3.77;;
15425;SDS011;7812;50.072;7.036;2023-11-21T08:38:14;5.23;;;3.53;;
15425;SDS011;7812;50.072;7.036;2023-11-21T08:40:40;14.43;;;10.57;;
15425;SDS011;7812;50.072;7.036;2023-11-21T08:43:06;10.43;;;8.40;;
15425;SDS011;7812;50.072;7.036;2023-11-21T08:45:33;7.50;;;5.23;;
15425;SDS011;7812;50.072;7.036;2023-11-21T08:48:00;5.07;;;4.57;;
15425;SDS011;7812;50.072;7.036;2023-11-21T08:50:26;5.53;;;3.50;;
15425;SDS011;7812;50.072;7.036;2023-11-21T08:52:53;4.07;;;3.53;;
15425;SDS011;7812;50.072;7.036;2023-11-21T08:55:19;4.03;;;3.57;;
15425;SDS011;7812;50.072;7.036;2023-11-21T08:57:45;5.23;;;3.63;;
15425;SDS011;7812;50.072;7.036;2023-11-21T09:00:14;5.97;;;5.00;;
15425;SDS011;7812;50.072;7.036;2023-11-21T09:02:42;7.60;;;4.90;;
15425;SDS011;7812;50.072;7.036;2023-11-21T09:05:11;6.87;;;4.83;;
15425;SDS011;7812;50.072;7.036;2023-11-21T09:07:39;6.07;;;4.50;;
15425;SDS011;7812;50.072;7.036;2023-11-21T09:10:06;9.53;;;5.73;;
15425;SDS011;7812;50.072;7.036;2023-11-21T09:12:34;4.47;;;4.07;;
15425;SDS011;7812;50.072;7.036;2023-11-21T09:15:02;6.77;;;5.57;;
15425;SDS011;7812;50.072;7.036;2023-11-21T09:17:29;6.33;;;5.17;;
15425;SDS011;7812;50.072;7.036;2023-11-21T09:19:55;6.30;;;5.40;;
15425;SDS011;7812;50.072;7.036;2023-11-21T09:22:22;5.77;;;4.77;;
15425;SDS011;7812;50.072;7.036;2023-11-21T09:24:49;7.40;;;6.13;;
15425;SDS011;7812;50.072;7.036;2023-11-21T09:27:16;6.77;;;4.77;;
15425;SDS011;7812;50.072;7.036;2023-11-21T09:29:42;6.97;;;5.10;;
15425;SDS011;7812;50.072;7.036;2023-11-21T09:32:11;6.17;;;4.90;;
15425;SDS011;7812;50.072;7.036;2023-11-21T09:34:39;6.23;;;5.30;;
15425;SDS011;7812;50.072;7.036;2023-11-21T09:37:06;7.50;;;5.20;;
15425;SDS011;7812;50.072;7.036;2023-11-21T09:39:33;6.27;;;5.60;;
15425;SDS011;7812;50.072;7.036;2023-11-21T09:42:17;7.43;;;5.83;;
15425;SDS011;7812;50.072;7.036;2023-11-21T09:44:51;5.80;;;4.70;;
15425;SDS011;7812;50.072;7.036;2023-11-21T09:47:26;6.30;;;5.63;;
15425;SDS011;7812;50.072;7.036;2023-11-21T09:49:53;7.10;;;5.67;;
15425;SDS011;7812;50.072;7.036;2023-11-21T09:52:25;6.10;;;5.30;;
15425;SDS011;7812;50.072;7.036;2023-11-21T09:54:54;6.93;;;5.97;;
15425;SDS011;7812;50.072;7.036;2023-11-21T09:57:24;7.60;;;5.80;;
15425;SDS011;7812;50.072;7.036;2023-11-21T09:59:53;6.00;;;5.37;;
15425;SDS011;7812;50.072;7.036;2023-11-21T10:02:25;7.77;;;6.20;;
15425;SDS011;7812;50.072;7.036;2023-11-21T10:04:54;7.30;;;6.00;;
15425;SDS011;7812;50.072;7.036;2023-11-21T10:07:21;6.87;;;6.17;;
15425;SDS011;7812;50.072;7.036;2023-11-21T10:09:48;7.10;;;6.17;;
15425;SDS011;7812;50.072;7.036;2023-11-21T10:12:15;7.00;;;5.67;;
15425;SDS011;7812;50.072;7.036;2023-11-21T10:14:42;7.50;;;5.57;;
15425;SDS011;7812;50.072;7.036;2023-11-21T10:17:10;6.20;;;5.60;;
15425;SDS011;7812;50.072;7.036;2023-11-21T10:19:37;6.67;;;6.07;;
15425;SDS011;7812;50.072;7.036;2023-11-21T10:22:05;4.63;;;4.17;;
15425;SDS011;7812;50.072;7.036;2023-11-21T10:24:32;4.53;;;3.97;;
15425;SDS011;7812;50.072;7.036;2023-11-21T10:26:58;4.30;;;3.43;;
15425;SDS011;7812;50.072;7.036;2023-11-21T10:29:28;4.87;;;4.43;;
15425;SDS011;7812;50.072;7.036;2023-11-21T10:31:55;5.53;;;4.43;;
15425;SDS011;7812;50.072;7.036;2023-11-21T10:34:23;5.30;;;4.80;;
15425;SDS011;7812;50.072;7.036;2023-11-21T10:36:49;6.77;;;4.60;;
15425;SDS011;7812;50.072;7.036;2023-11-21T10:39:18;5.23;;;4.20;;
15425;SDS011;7812;50.072;7.036;2023-11-21T10:41:45;7.13;;;4.70;;
15425;SDS011;7812;50.072;7.036;2023-11-21T10:44:16;4.00;;;3.60;;
15425;SDS011;7812;50.072;7.036;2023-11-21T10:46:53;4.43;;;4.03;;
15425;SDS011;7812;50.072;7.036;2023-11-21T10:49:22;4.10;;;3.60;;
15425;SDS011;7812;50.072;7.036;2023-11-21T10:51:50;5.03;;;4.03;;
15425;SDS011;7812;50.072;7.036;2023-11-21T10:54:18;4.77;;;4.23;;
15425;SDS011;7812;50.072;7.036;2023-11-21T10:56:49;5.60;;;4.73;;
15425;SDS011;7812;50.072;7.036;2023-11-21T10:59:16;5.77;;;5.13;;
15425;SDS011;7812;50.072;7.036;2023-11-21T11:01:44;5.80;;;5.13;;
15425;SDS011;7812;50.072;7.036;2023-11-21T11:04:11;4.50;;;4.03;;
15425;SDS011;7812;50.072;7.036;2023-11-21T11:06:44;5.47;;;3.93;;
15425;SDS011;7812;50.072;7.036;2023-11-21T11:09:16;5.40;;;4.90;;
15425;SDS011;7812;50.072;7.036;2023-11-21T11:11:43;5.30;;;4.40;;
15425;SDS011;7812;50.072;7.036;2023-11-21T11:14:13;4.93;;;3.57;;
15425;SDS011;7812;50.072;7.036;2023-11-21T11:16:39;5.37;;;4.47;;
15425;SDS011;7812;50.072;7.036;2023-11-21T11:19:06;5.47;;;4.10;;
15425;SDS011;7812;50.072;7.036;2023-11-21T11:21:57;4.70;;;4.20;;
15425;SDS011;7812;50.072;7.036;2023-11-21T11:30:45;4.67;;;3.73;;
15425;SDS011;7812;50.072;7.036;2023-11-21T11:38:45;4.27;;;3.70;;
15425;SDS011;7812;50.072;7.036;2023-11-21T11:41:11;4.13;;;3.60;;
15425;SDS011;7812;50.072;7.036;2023-11-21T11:43:38;6.57;;;4.17;;
15425;SDS011;7812;50.072;7.036;2023-11-21T11:46:10;7.03;;;4.00;;
15425;SDS011;7812;50.072;7.036;2023-11-21T11:48:40;4.93;;;3.80;;
15425;SDS011;7812;50.072;7.036;2023-11-21T11:51:10;6.47;;;4.10;;
15425;SDS011;7812;50.072;7.036;2023-11-21T11:53:42;5.40;;;4.57;;
15425;SDS011;7812;50.072;7.036;2023-11-21T11:56:22;7.17;;;4.43;;
15425;SDS011;7812;50.072;7.036;2023-11-21T11:58:49;7.03;;;5.13;;
15425;SDS011;7812;50.072;7.036;2023-11-21T12:01:22;7.67;;;5.20;;
15425;SDS011;7812;50.072;7.036;2023-11-21T12:06:42;6.23;;;5.17;;
15425;SDS011;7812;50.072;7.036;2023-11-21T12:09:18;8.93;;;4.90;;
15425;SDS011;7812;50.072;7.036;2023-11-21T12:11:46;6.73;;;5.17;;
15425;SDS011;7812;50.072;7.036;2023-11-21T12:14:14;6.93;;;5.60;;
15425;SDS011;7812;50.072;7.036;2023-11-21T12:16:40;8.30;;;5.63;;
15425;SDS011;7812;50.072;7.036;2023-11-21T12:19:08;9.57;;;6.23;;
15425;SDS011;7812;50.072;7.036;2023-11-21T12:21:36;6.90;;;5.57;;
15425;SDS011;7812;50.072;7.036;2023-11-21T12:24:02;8.30;;;5.27;;
15425;SDS011;7812;50.072;7.036;2023-11-21T12:26:29;8.00;;;5.40;;
15425;SDS011;7812;50.072;7.036;2023-11-21T12:28:55;9.70;;;6.80;;
15425;SDS011;7812;50.072;7.036;2023-11-21T12:31:21;7.80;;;5.40;;
15425;SDS011;7812;50.072;7.036;2023-11-21T12:33:50;10.77;;;6.53;;
15425;SDS011;7812;50.072;7.036;2023-11-21T12:36:16;8.40;;;5.83;;
15425;SDS011;7812;50.072;7.036;2023-11-21T12:38:42;9.67;;;6.53;;
15425;SDS011;7812;50.072;7.036;2023-11-21T12:41:09;10.80;;;7.07;;
15425;SDS011;7812;50.072;7.036;2023-11-21T12:43:35;7.23;;;5.27;;
15425;SDS011;7812;50.072;7.036;2023-11-21T12:46:08;8.13;;;5.40;;
15425;SDS011;7812;50.072;7.036;2023-11-21T12:48:38;10.87;;;6.67;;
15425;SDS011;7812;50.072;7.036;2023-11-21T12:51:05;5.30;;;4.63;;
15425;SDS011;7812;50.072;7.036;2023-11-21T12:53:31;6.13;;;4.57;;
15425;SDS011;7812;50.072;7.036;2023-11-21T12:56:06;13.73;;;7.67;;
15425;SDS011;7812;50.072;7.036;2023-11-21T12:58:36;9.43;;;6.00;;
15425;SDS011;7812;50.072;7.036;2023-11-21T13:01:04;10.07;;;6.27;;
15425;SDS011;7812;50.072;7.036;2023-11-21T13:03:37;5.13;;;4.00;;
15425;SDS011;7812;50.072;7.036;2023-11-21T13:06:03;7.03;;;6.10;;
15425;SDS011;7812;50.072;7.036;2023-11-21T13:08:30;9.50;;;6.97;;
15425;SDS011;7812;50.072;7.036;2023-11-21T13:10:58;10.70;;;5.17;;
15425;SDS011;7812;50.072;7.036;2023-11-21T13:13:24;7.63;;;5.80;;
15425;SDS011;7812;50.072;7.036;2023-11-21T13:16:02;7.70;;;5.43;;
15425;SDS011;7812;50.072;7.036;2023-11-21T13:18:31;6.77;;;4.17;;
15425;SDS011;7812;50.072;7.036;2023-11-21T13:20:58;7.67;;;5.53;;
15425;SDS011;7812;50.072;7.036;2023-11-21T13:23:25;9.73;;;5.87;;
15425;SDS011;7812;50.072;7.036;2023-11-21T13:25:53;9.33;;;5.90;;
15425;SDS011;7812;50.072;7.036;2023-11-21T13:28:20;6.90;;;4.20;;
15425;SDS011;7812;50.072;7.036;2023-11-21T13:30:47;8.23;;;6.03;;
15425;SDS011;7812;50.072;7.036;2023-11-21T13:33:13;8.07;;;6.40;;
15425;SDS011;7812;50.072;7.036;2023-11-21T13:35:43;7.53;;;5.90;;
15425;SDS011;7812;50.072;7.036;2023-11-21T13:38:13;9.30;;;6.80;;
15425;SDS011;7812;50.072;7.036;2023-11-21T13:40:48;10.87;;;6.87;;
15425;SDS011;7812;50.072;7.036;2023-11-21T13:43:18;8.10;;;5.53;;
15425;SDS011;7812;50.072;7.036;2023-11-21T13:45:50;9.83;;;6.73;;
15425;SDS011;7812;50.072;7.036;2023-11-21T13:48:23;9.60;;;6.00;;
15425;SDS011;7812;50.072;7.036;2023-11-21T13:51:13;9.70;;;6.67;;
15425;SDS011;7812;50.072;7.036;2023-11-21T13:53:45;10.83;;;7.33;;
15425;SDS011;7812;50.072;7.036;2023-11-21T13:56:15;9.07;;;6.67;;
15425;SDS011;7812;50.072;7.036;2023-11-21T13:58:52;5.13;;;4.60;;
15425;SDS011;7812;50.072;7.036;2023-11-21T14:01:19;4.73;;;4.00;;
15425;SDS011;7812;50.072;7.036;2023-11-21T14:04:09;4.67;;;4.00;;
15425;SDS011;7812;50.072;7.036;2023-11-21T14:06:42;6.87;;;4.40;;
15425;SDS011;7812;50.072;7.036;2023-11-21T14:09:15;6.33;;;4.57;;
15425;SDS011;7812;50.072;7.036;2023-11-21T14:11:51;12.60;;;6.90;;
15425;SDS011;7812;50.072;7.036;2023-11-21T14:14:18;6.87;;;4.43;;
15425;SDS011;7812;50.072;7.036;2023-11-21T14:16:45;4.97;;;4.47;;
15425;SDS011;7812;50.072;7.036;2023-11-21T14:19:11;7.40;;;5.50;;
15425;SDS011;7812;50.072;7.036;2023-11-21T14:21:43;7.60;;;4.70;;
15425;SDS011;7812;50.072;7.036;2023-11-21T14:24:14;7.67;;;4.50;;
15425;SDS011;7812;50.072;7.036;2023-11-21T14:26:43;6.20;;;4.07;;
15425;SDS011;7812;50.072;7.036;2023-11-21T14:29:11;7.13;;;4.33;;
15425;SDS011;7812;50.072;7.036;2023-11-21T14:31:42;8.07;;;6.33;;
15425;SDS011;7812;50.072;7.036;2023-11-21T14:34:08;10.13;;;5.10;;
15425;SDS011;7812;50.072;7.036;2023-11-21T14:36:35;5.07;;;4.20;;
15425;SDS011;7812;50.072;7.036;2023-11-21T14:39:08;5.87;;;4.13;;
15425;SDS011;7812;50.072;7.036;2023-11-21T14:41:45;6.47;;;4.07;;
15425;SDS011;7812;50.072;7.036;2023-11-21T14:44:11;8.87;;;6.07;;
15425;SDS011;7812;50.072;7.036;2023-11-21T14:46:38;7.27;;;4.67;;
15425;SDS011;7812;50.072;7.036;2023-11-21T14:49:05;6.97;;;5.27;;
15425;SDS011;7812;50.072;7.036;2023-11-21T14:51:52;5.40;;;4.00;;
15425;SDS011;7812;50.072;7.036;2023-11-21T14:54:28;5.70;;;4.07;;
15425;SDS011;7812;50.072;7.036;2023-11-21T14:57:15;6.17;;;4.70;;
15425;SDS011;7812;50.072;7.036;2023-11-21T14:59:44;6.37;;;4.90;;
15425;SDS011;7812;50.072;7.036;2023-11-21T15:02:23;8.50;;;6.53;;
15425;SDS011;7812;50.072;7.036;2023-11-21T15:05:09;10.60;;;6.73;;
15425;SDS011;7812;50.072;7.036;2023-11-21T15:07:40;8.67;;;4.97;;
15425;SDS011;7812;50.072;7.036;2023-11-21T15:10:06;8.07;;;5.90;;
15425;SDS011;7812;50.072;7.036;2023-11-21T15:12:38;8.20;;;5.20;;
15425;SDS011;7812;50.072;7.036;2023-11-21T15:15:05;9.50;;;6.97;;
15425;SDS011;7812;50.072;7.036;2023-11-21T15:17:35;9.03;;;5.90;;
15425;SDS011;7812;50.072;7.036;2023-11-21T15:20:02;7.73;;;4.87;;